M I D A S
Marine Information and Data Acquisition System
Tripno 1791 of the Zeeleeuw from 2009-09-28 09:58:56 to 2009-09-28 15:36:03
Back to CruiseResearch ActivitiesStationsMapUnderway DataData graphs

EquipmentUnitsComment
TimeDGPSUTC
LatitudeDGPSDM.mWGS84
LongitudeDGPSDM.mWGS84
HeadingGyrodeg 
SOGDGPSknotsSpeed over ground
COGDGPSdegCourse over ground
DepthEcho soundermeters200 kHz
Missing or incorrect values are displayed as -999
Navigation data collected by the RV Zeeleeuw from 2009-09-28 09:57:43 to 2009-09-28 15:41:13
Time Latitude Longitude Heading SOG COG Depth
2009-09-28 09:58:52 51°13.674 2°55.918 113.7 2.6 294 -999
2009-09-28 09:59:52 51°13.69 2°55.853 107.9 2.6 288 -999
2009-09-28 10:00:51 51°13.7 2°55.792 97.7 1.7 284 -999
2009-09-28 10:01:50 51°13.707 2°55.798 52.4 0.4 48 13.4
2009-09-28 10:02:51 51°13.702 2°55.789 28.8 1.1 16 -999
2009-09-28 10:03:50 51°13.706 2°55.793 347.8 1 165 13.6
2009-09-28 10:04:51 51°13.717 2°55.775 314.5 2.4 311 14.1
2009-09-28 10:05:49 51°13.76 2°55.705 318.8 4.6 319 12.4
2009-09-28 10:06:48 51°13.836 2°55.632 333 6 332 12.3
2009-09-28 10:07:48 51°13.933 2°55.562 337.8 6.6 337 12.4
2009-09-28 10:08:48 51°14.033 2°55.491 336.7 6.7 335 11.8
2009-09-28 10:09:48 51°14.135 2°55.414 333.5 7.1 331 12
2009-09-28 10:10:48 51°14.232 2°55.295 318 7.8 317 12
2009-09-28 10:11:48 51°14.325 2°55.137 310.8 8.2 310 11.9
2009-09-28 10:12:48 51°14.423 2°54.977 320.9 8.8 321 11
2009-09-28 10:13:48 51°14.559 2°54.843 331.1 10 332 10.8
2009-09-28 10:14:48 51°14.718 2°54.723 335.4 10.9 335 10.5
2009-09-28 10:15:48 51°14.883 2°54.597 334.7 11 334 10.5
2009-09-28 10:16:48 51°15.045 2°54.457 329.5 11 329 11.2
2009-09-28 10:17:48 51°15.201 2°54.308 330.8 10.9 331 10.3
2009-09-28 10:18:48 51°15.361 2°54.168 331.8 11 332 10.4
2009-09-28 10:19:48 51°15.521 2°54.027 332.1 11 332 10.9
2009-09-28 10:20:48 51°15.681 2°53.886 331.2 11 330 11.7
2009-09-28 10:21:48 51°15.841 2°53.743 331.4 11 331 12.1
2009-09-28 10:22:48 51°16.001 2°53.601 330.3 11 331 12.2
2009-09-28 10:23:48 51°16.162 2°53.459 331.4 11 331 12.5
2009-09-28 10:24:48 51°16.324 2°53.317 331.5 11.1 331 12.6
2009-09-28 10:25:48 51°16.485 2°53.175 331.1 11.1 331 12.3
2009-09-28 10:26:48 51°16.646 2°53.032 331.1 11.1 331 12.2
2009-09-28 10:27:48 51°16.808 2°52.894 331.2 11 332 10.3
2009-09-28 10:28:48 51°16.97 2°52.754 331.5 11.2 332 10.4
2009-09-28 10:29:48 51°17.14 2°52.635 338.2 11.1 337 10.3
2009-09-28 10:30:48 51°17.318 2°52.553 350.8 11.1 352 10.7
2009-09-28 10:31:48 51°17.503 2°52.561 5.9 11.3 5 11
2009-09-28 10:32:48 51°17.69 2°52.594 7.4 11.4 7 11
2009-09-28 10:33:48 51°17.879 2°52.626 6.6 11.4 5 11
2009-09-28 10:34:48 51°18.068 2°52.653 5.3 11.4 4 11.4
2009-09-28 10:35:48 51°18.258 2°52.675 4.7 11.4 4 11.4
2009-09-28 10:36:48 51°18.447 2°52.694 4.9 11.4 3 11.8
2009-09-28 10:37:48 51°18.637 2°52.713 5 11.4 3 12.1
2009-09-28 10:38:48 51°18.825 2°52.73 3.9 11.3 2 12.4
2009-09-28 10:39:48 51°19.013 2°52.748 4.5 11.4 3 13
2009-09-28 10:40:48 51°19.203 2°52.767 4.5 11.5 3 13.8
2009-09-28 10:41:48 51°19.393 2°52.788 5.9 11.4 5 14.8
2009-09-28 10:42:48 51°19.581 2°52.824 10 11.4 10 15.3
2009-09-28 10:43:48 51°19.767 2°52.888 13.3 11.5 12 16.1
2009-09-28 10:44:48 51°19.953 2°52.953 12.8 11.5 13 16.5
2009-09-28 10:45:48 51°20.139 2°53.018 12.6 11.4 12 16.6
2009-09-28 10:46:48 51°20.324 2°53.081 12.5 11.4 12 16.6
2009-09-28 10:47:48 51°20.51 2°53.142 12.4 11.4 12 16.8
2009-09-28 10:48:48 51°20.695 2°53.203 12.7 11.4 12 16.8
2009-09-28 10:49:48 51°20.881 2°53.252 8.9 11.3 8 16.9
2009-09-28 10:50:48 51°21.068 2°53.294 9 11.4 8 16.6
2009-09-28 10:51:48 51°21.255 2°53.336 9.8 11.4 8 15.9
2009-09-28 10:52:48 51°21.442 2°53.373 7.5 11.3 5 16.2
2009-09-28 10:53:48 51°21.629 2°53.412 9.5 11.3 7 17.1
2009-09-28 10:54:48 51°21.815 2°53.452 9.5 11.3 8 18.6
2009-09-28 10:55:48 51°22.004 2°53.487 7.7 11.3 6 20
2009-09-28 10:56:48 51°22.189 2°53.528 10.1 11.3 8 21.5
2009-09-28 10:57:48 51°22.376 2°53.57 8.8 11.4 7 22.5
2009-09-28 10:58:48 51°22.563 2°53.613 9.6 11.3 8 22.8
2009-09-28 10:59:48 51°22.749 2°53.655 8.8 11.4 8 23
2009-09-28 11:01:02 51°22.981 2°53.709 9.3 11.4 8 20.6
2009-09-28 11:02:02 51°23.168 2°53.751 8.3 11.4 8 21.9
2009-09-28 11:03:02 51°23.356 2°53.797 8.5 11.4 7 20.3
2009-09-28 11:04:02 51°23.545 2°53.843 9.7 11.5 8 18.8
2009-09-28 11:05:02 51°23.733 2°53.887 9.7 11.5 9 20.7
2009-09-28 11:06:02 51°23.922 2°53.909 2.1 11.4 1 21.9
2009-09-28 11:07:02 51°24.113 2°53.91 2 11.4 -999 22.2
2009-09-28 11:08:02 51°24.303 2°53.913 2 11.4 -999 18.9
2009-09-28 11:09:02 51°24.493 2°53.917 4.8 11.4 4 18.1
2009-09-28 11:10:02 51°24.681 2°53.944 6.2 11.5 6 18.1
2009-09-28 11:11:02 51°24.871 2°53.977 8.1 11.6 7 20
2009-09-28 11:12:02 51°25.062 2°54.015 7.7 11.6 7 20.4
2009-09-28 11:13:02 51°25.254 2°54.053 7.3 11.6 7 21.6
2009-09-28 11:14:02 51°25.444 2°54.091 8.7 11.5 8 21
2009-09-28 11:15:02 51°25.633 2°54.127 6.6 11.3 7 20.7
2009-09-28 11:16:02 51°25.819 2°54.164 7.7 11.3 7 22.1
2009-09-28 11:17:02 51°26.006 2°54.197 6.2 11.3 6 22
2009-09-28 11:18:02 51°26.192 2°54.231 7.6 11.3 7 23.8
2009-09-28 11:19:02 51°26.379 2°54.269 7.7 11.3 7 24.8
2009-09-28 11:20:02 51°26.566 2°54.303 7.5 11.3 6 29.4
2009-09-28 11:21:02 51°26.753 2°54.338 9.1 11.3 7 25.5
2009-09-28 11:22:02 51°26.94 2°54.379 8.8 11.4 8 24.7
2009-09-28 11:23:02 51°27.128 2°54.42 10.2 11.5 10 27.3
2009-09-28 11:24:02 51°27.315 2°54.469 10 11.4 9 28.9
2009-09-28 11:25:02 51°27.503 2°54.518 10 11.4 9 27.5
2009-09-28 11:26:02 51°27.69 2°54.566 9.9 11.4 9 26.6
2009-09-28 11:27:02 51°27.879 2°54.613 9.6 11.5 9 23.7
2009-09-28 11:28:02 51°28.068 2°54.658 9.2 11.6 8 21
2009-09-28 11:29:02 51°28.259 2°54.703 9.4 11.5 9 20.5
2009-09-28 11:30:02 51°28.449 2°54.749 9.2 11.5 8 19.9
2009-09-28 11:31:02 51°28.638 2°54.796 9.3 11.5 9 21.5
2009-09-28 11:32:02 51°28.827 2°54.841 8.8 11.4 8 24
2009-09-28 11:33:02 51°29.015 2°54.886 8.2 11.5 8 25.9
2009-09-28 11:34:02 51°29.204 2°54.929 9.3 11.5 8 26.5
2009-09-28 11:35:02 51°29.393 2°54.973 9.1 11.4 8 26.9
2009-09-28 11:36:02 51°29.582 2°55.015 8.8 11.4 7 27.4
2009-09-28 11:37:02 51°29.77 2°55.056 9.8 11.5 8 28.2
2009-09-28 11:38:02 51°29.959 2°55.101 9.7 11.5 8 28.9
2009-09-28 11:39:02 51°30.148 2°55.144 8.3 11.5 8 33
2009-09-28 11:40:02 51°30.339 2°55.186 9.5 11.5 7 35.5
2009-09-28 11:41:02 51°30.529 2°55.227 9.5 11.6 8 36.2
2009-09-28 11:42:02 51°30.721 2°55.272 9.8 11.6 8 36.6
2009-09-28 11:43:02 51°30.912 2°55.312 9.5 11.5 8 24.3
2009-09-28 11:44:02 51°31.102 2°55.353 10 11.6 8 18.3
2009-09-28 11:45:02 51°31.293 2°55.392 9.6 11.6 8 17.1
2009-09-28 11:46:02 51°31.485 2°55.432 9.4 11.7 7 17.6
2009-09-28 11:47:02 51°31.678 2°55.474 9.5 11.7 8 17
2009-09-28 11:48:02 51°31.87 2°55.516 8.1 11.6 8 20.1
2009-09-28 11:49:02 51°32.063 2°55.557 9.3 11.6 8 19.7
2009-09-28 11:50:02 51°32.254 2°55.603 9.4 11.6 7 19.7
2009-09-28 11:51:02 51°32.429 2°55.649 9.9 7.9 11 21.3
2009-09-28 11:52:02 51°32.521 2°55.69 13.9 4.4 20 18.5
2009-09-28 11:53:02 51°32.576 2°55.721 5.3 2.8 18 24
2009-09-28 11:54:02 51°32.613 2°55.742 0.1 2 22 23.7
2009-09-28 11:55:02 51°32.639 2°55.761 357.9 1.6 29 24.6
2009-09-28 11:56:02 51°32.662 2°55.78 349.7 1.6 17 24.1
2009-09-28 11:57:02 51°32.695 2°55.764 298 2.5 306 23.8
2009-09-28 11:58:02 51°32.697 2°55.722 246.5 1 242 24.4
2009-09-28 11:59:02 51°32.686 2°55.71 221.8 0.9 193 25.3
2009-09-28 12:00:02 51°32.67 2°55.707 216.6 1.1 183 25.5
2009-09-28 12:01:02 51°32.651 2°55.703 219.6 1.1 192 25.5
2009-09-28 12:02:03 51°32.633 2°55.694 224 1.1 198 25
2009-09-28 12:03:14 51°32.614 2°55.679 231.8 1.1 216 24.5
2009-09-28 12:04:14 51°32.602 2°55.66 246.2 1 236 23.3
2009-09-28 12:05:14 51°32.597 2°55.636 261 1 261 22.8
2009-09-28 12:06:14 51°32.598 2°55.611 275.1 1 284 20.6
2009-09-28 12:07:14 51°32.609 2°55.567 280.2 3.6 281 21.6
2009-09-28 12:08:14 51°32.601 2°55.378 262.8 9 263 23.5
2009-09-28 12:09:14 51°32.574 2°55.165 254.9 5.7 255 22.9
2009-09-28 12:10:14 51°32.546 2°55.076 233.4 2.6 228 21.5
2009-09-28 12:11:14 51°32.518 2°55.048 215.7 1.6 200 22.1
2009-09-28 12:12:14 51°32.498 2°55.043 213.1 1 175 19.3
2009-09-28 12:13:14 51°32.485 2°55.046 217 0.6 160 20.6
2009-09-28 12:14:14 51°32.479 2°55.054 220.7 0.4 131 21.1
2009-09-28 12:15:14 51°32.476 2°55.065 222.9 0.5 111 20.4
2009-09-28 12:16:14 51°32.474 2°55.079 223.5 0.7 98 20.5
2009-09-28 12:17:14 51°32.473 2°55.097 221 0.8 94 22.2
2009-09-28 12:18:14 51°32.473 2°55.118 210.6 0.9 85 22.9
2009-09-28 12:19:14 51°32.476 2°55.142 195.9 0.9 79 20.3
2009-09-28 12:20:14 51°32.479 2°55.166 182 0.9 72 20.8
2009-09-28 12:21:14 51°32.483 2°55.188 175.5 0.8 70 22.3
2009-09-28 12:22:14 51°32.488 2°55.211 174.9 0.9 75 22
2009-09-28 12:23:14 51°32.492 2°55.235 174.6 0.9 72 22.4
2009-09-28 12:24:14 51°32.496 2°55.259 175.8 0.9 76 22.4
2009-09-28 12:25:14 51°32.5 2°55.281 177.7 0.9 75 21.9
2009-09-28 12:26:15 51°32.504 2°55.303 179.5 0.8 73 20.5
2009-09-28 12:27:14 51°32.507 2°55.325 180.4 0.8 74 20.1
2009-09-28 12:28:14 51°32.51 2°55.348 181.5 0.9 76 21.9
2009-09-28 12:29:14 51°32.513 2°55.371 179.9 0.9 76 22.3
2009-09-28 12:30:14 51°32.517 2°55.395 178.6 1 78 22.8
2009-09-28 12:31:14 51°32.52 2°55.42 178.9 0.9 74 21.8
2009-09-28 12:32:14 51°32.523 2°55.443 179.2 0.9 76 23
2009-09-28 12:33:14 51°32.517 2°55.463 193 1.2 164 23.1
2009-09-28 12:34:14 51°32.488 2°55.44 237.7 2.5 231 21.9
2009-09-28 12:35:14 51°32.496 2°55.328 296.3 6.6 301 19.5
2009-09-28 12:36:14 51°32.592 2°55.127 309.2 10.8 312 22.8
2009-09-28 12:37:14 51°32.734 2°54.945 331.2 11.1 334 24.1
2009-09-28 12:38:14 51°32.912 2°54.862 346.3 11.4 350 22.6
2009-09-28 12:39:14 51°33.102 2°54.861 5.1 11.5 8 23.7
2009-09-28 12:40:14 51°33.277 2°54.981 34.6 11.7 37 26
2009-09-28 12:41:14 51°33.362 2°55.165 75.8 5.4 75 25.2
2009-09-28 12:42:14 51°33.359 2°55.269 111.2 3.1 107 25.3
2009-09-28 12:43:14 51°33.34 2°55.328 140.3 2 123 25.9
2009-09-28 12:44:14 51°33.325 2°55.366 144.8 1.5 118 25.4
2009-09-28 12:45:14 51°33.315 2°55.399 147.3 1.3 114 26.5
2009-09-28 12:46:14 51°33.308 2°55.428 149.6 1 111 26.2
2009-09-28 12:47:14 51°33.303 2°55.454 154.7 1 104 26.1
2009-09-28 12:48:14 51°33.3 2°55.478 163.6 0.8 82 25.8
2009-09-28 12:49:14 51°33.307 2°55.498 165.6 1 46 25
2009-09-28 12:50:14 51°33.321 2°55.514 152.2 0.9 37 26.4
2009-09-28 12:51:14 51°33.331 2°55.529 142.3 0.8 50 26.6
2009-09-28 12:52:14 51°33.338 2°55.548 137.6 0.9 69 26.6
2009-09-28 12:53:14 51°33.342 2°55.57 142.2 0.9 72 26.3
2009-09-28 12:54:14 51°33.348 2°55.592 148.8 0.8 58 25
2009-09-28 12:55:14 51°33.356 2°55.61 147 0.9 50 23.9
2009-09-28 12:56:14 51°33.365 2°55.629 140.9 0.8 60 24.5
2009-09-28 12:57:14 51°33.37 2°55.65 143.2 0.8 73 23.2
2009-09-28 12:58:14 51°33.373 2°55.672 151.1 0.9 81 24.2
2009-09-28 12:59:14 51°33.373 2°55.695 162.5 0.9 90 25.2
2009-09-28 13:00:14 51°33.373 2°55.718 172.4 0.8 95 26.4
2009-09-28 13:01:14 51°33.372 2°55.74 181.6 0.8 97 26
2009-09-28 13:02:14 51°33.371 2°55.765 185.2 0.9 95 26.1
2009-09-28 13:03:14 51°33.37 2°55.789 187.3 0.9 94 25.9
2009-09-28 13:04:14 51°33.369 2°55.814 186 1 94 26.1
2009-09-28 13:05:14 51°33.369 2°55.84 181.9 1 89 26
2009-09-28 13:06:14 51°33.369 2°55.866 177.8 0.9 86 25.2
2009-09-28 13:07:14 51°33.369 2°55.89 175.7 0.9 86 24.3
2009-09-28 13:08:14 51°33.371 2°55.915 171.9 0.9 84 23.6
2009-09-28 13:09:14 51°33.372 2°55.939 169.5 0.9 82 24.3
2009-09-28 13:10:14 51°33.374 2°55.963 168.1 0.9 87 24.5
2009-09-28 13:11:14 51°33.375 2°55.988 167.5 0.9 87 24.6
2009-09-28 13:12:14 51°33.377 2°56.012 167.7 0.9 89 24.5
2009-09-28 13:13:14 51°33.376 2°56.036 170.5 1 90 24.5
2009-09-28 13:14:14 51°33.376 2°56.061 172.4 1 93 25.5
2009-09-28 13:15:14 51°33.376 2°56.085 174.5 0.9 91 25.8
2009-09-28 13:16:14 51°33.375 2°56.108 177.8 0.9 91 25.2
2009-09-28 13:17:14 51°33.374 2°56.131 178.4 0.9 93 24.6
2009-09-28 13:18:14 51°33.373 2°56.154 176.8 0.9 90 24.1
2009-09-28 13:19:14 51°33.373 2°56.178 174.3 0.9 88 25.6
2009-09-28 13:20:14 51°33.374 2°56.2 172.3 0.9 86 25.5
2009-09-28 13:21:14 51°33.375 2°56.223 171.7 0.9 82 25.9
2009-09-28 13:22:14 51°33.363 2°56.254 146.3 2.2 132 25.9
2009-09-28 13:23:14 51°33.344 2°56.322 97.7 3.1 95 26.3
2009-09-28 13:24:14 51°33.359 2°56.395 47.5 2.5 58 24.7
2009-09-28 13:25:14 51°33.379 2°56.437 29.4 1.7 52 25.2
2009-09-28 13:26:14 51°33.398 2°56.474 37.1 2 55 25.6
2009-09-28 13:27:14 51°33.415 2°56.526 68.5 2.5 75 26.3
2009-09-28 13:28:14 51°33.411 2°56.594 114.7 2.7 111 25.2
2009-09-28 13:29:14 51°33.395 2°56.652 124 2.3 119 25.9
2009-09-28 13:30:14 51°33.377 2°56.702 130.4 2 122 25.4
2009-09-28 13:31:14 51°33.359 2°56.747 129.9 2 122 25.1
2009-09-28 13:32:15 51°33.34 2°56.789 137.3 1.9 128 24.6
2009-09-28 13:33:14 51°33.321 2°56.829 132.4 2 123 24.2
2009-09-28 13:34:14 51°33.307 2°56.88 101.9 2.2 103 24.2
2009-09-28 13:35:14 51°33.311 2°56.95 59.6 3.3 61 25
2009-09-28 13:36:14 51°33.358 2°56.979 343.2 3.2 345 25.2
2009-09-28 13:37:14 51°33.384 2°56.913 272.6 3.5 266 26.4
2009-09-28 13:38:14 51°33.371 2°56.727 270.7 9 270 25.4
2009-09-28 13:39:14 51°33.379 2°56.458 275.5 10.8 274 24.9
2009-09-28 13:40:14 51°33.389 2°56.165 274.2 11 272 25.5
2009-09-28 13:41:14 51°33.398 2°55.87 275 11.1 272 24.5
2009-09-28 13:42:14 51°33.407 2°55.575 274.6 11 272 25.2
2009-09-28 13:43:14 51°33.407 2°55.281 269.6 11 266 25.4
2009-09-28 13:44:14 51°33.374 2°54.994 252.3 10.8 249 26.3
2009-09-28 13:45:14 51°33.245 2°54.807 202.6 10.8 198 25.6
2009-09-28 13:46:14 51°33.061 2°54.77 181.8 11.3 180 24.4
2009-09-28 13:47:14 51°32.871 2°54.788 177.9 11.5 177 24.5
2009-09-28 13:48:14 51°32.682 2°54.79 183.1 11.4 183 23.2
2009-09-28 13:49:14 51°32.493 2°54.774 185.2 11.4 184 23.6
2009-09-28 13:50:15 51°32.299 2°54.756 183.7 11.5 182 21
2009-09-28 13:51:14 51°32.112 2°54.733 188.9 11.5 188 21
2009-09-28 13:52:14 51°31.926 2°54.668 194.5 11.4 193 20.2
2009-09-28 13:53:14 51°31.741 2°54.596 195 11.5 194 19.9
2009-09-28 13:54:14 51°31.557 2°54.525 195 11.4 193 18.6
2009-09-28 13:55:14 51°31.373 2°54.455 194.7 11.3 195 15.7
2009-09-28 13:56:14 51°31.188 2°54.385 193.9 11.4 194 18.6
2009-09-28 13:57:14 51°31.003 2°54.311 194.7 11.5 194 18.9
2009-09-28 13:58:14 51°30.818 2°54.24 194.4 11.5 193 15.1
2009-09-28 13:59:14 51°30.632 2°54.165 193.6 11.5 196 28.5
2009-09-28 14:00:14 51°30.446 2°54.093 194.4 11.5 195 32.7
2009-09-28 14:01:14 51°30.26 2°54.019 193.9 11.5 195 30.9
2009-09-28 14:02:14 51°30.073 2°53.941 193.9 11.6 194 31.5
2009-09-28 14:03:14 51°29.883 2°53.869 194.5 11.7 193 30.5
2009-09-28 14:04:14 51°29.693 2°53.797 194.1 11.7 192 30.4
2009-09-28 14:05:14 51°29.503 2°53.736 188.9 11.7 189 29.5
2009-09-28 14:06:14 51°29.31 2°53.691 188.3 11.7 190 28.5
2009-09-28 14:07:14 51°29.117 2°53.645 189.5 11.7 188 27.5
2009-09-28 14:08:14 51°28.925 2°53.598 189.4 11.7 187 26.2
2009-09-28 14:09:14 51°28.732 2°53.549 189.8 11.6 188 24.7
2009-09-28 14:10:14 51°28.538 2°53.501 189.2 11.6 188 23.7
2009-09-28 14:11:14 51°28.345 2°53.452 189.5 11.7 188 21.8
2009-09-28 14:12:14 51°28.152 2°53.402 190.2 11.8 188 20.4
2009-09-28 14:13:14 51°27.959 2°53.354 189.5 11.7 190 20.7
2009-09-28 14:14:14 51°27.768 2°53.305 189.1 11.6 189 21.2
2009-09-28 14:15:14 51°27.576 2°53.255 189.5 11.5 190 20.4
2009-09-28 14:16:14 51°27.387 2°53.179 198.9 11.7 199 22.8
2009-09-28 14:17:14 51°27.202 2°53.079 199 11.7 200 24.6
2009-09-28 14:18:14 51°27.015 2°52.983 197.7 11.8 198 26.5
2009-09-28 14:19:14 51°26.83 2°52.888 197.9 11.7 197 27.9
2009-09-28 14:20:14 51°26.639 2°52.83 183 11.8 183 27.8
2009-09-28 14:21:14 51°26.444 2°52.829 177.2 11.7 180 24.6
2009-09-28 14:22:14 51°26.248 2°52.832 177.9 11.8 178 24.8
2009-09-28 14:23:14 51°26.051 2°52.839 174 11.9 176 26.4
2009-09-28 14:24:14 51°25.857 2°52.878 168.5 11.7 172 26
2009-09-28 14:25:14 51°25.663 2°52.917 170.9 11.7 173 24.2
2009-09-28 14:26:14 51°25.471 2°52.96 168.9 11.6 169 23.5
2009-09-28 14:27:14 51°25.278 2°53.006 170.3 11.6 173 22.8
2009-09-28 14:28:14 51°25.086 2°53.043 171.5 11.7 173 21.4
2009-09-28 14:29:14 51°24.892 2°53.074 171.8 11.7 174 18.6
2009-09-28 14:30:14 51°24.701 2°53.128 162 11.6 165 19.1
2009-09-28 14:31:14 51°24.516 2°53.224 158.2 11.6 160 19.4
2009-09-28 14:32:14 51°24.333 2°53.328 157.3 11.7 160 16.5
2009-09-28 14:33:14 51°24.147 2°53.423 159 11.7 164 18.3
2009-09-28 14:34:15 51°23.959 2°53.525 155.8 11.7 158 20.5
2009-09-28 14:35:14 51°23.783 2°53.64 153.3 11.7 159 20.3
2009-09-28 14:36:14 51°23.602 2°53.757 154 11.8 158 20
2009-09-28 14:37:14 51°23.422 2°53.878 152.9 11.8 157 20
2009-09-28 14:38:14 51°23.242 2°53.994 157.9 11.7 164 20.2
2009-09-28 14:39:14 51°23.05 2°54.033 174.7 11.8 178 20.2
2009-09-28 14:40:14 51°22.856 2°54.027 181.2 11.6 184 21.7
2009-09-28 14:41:14 51°22.662 2°54.009 181 11.8 185 22.3
2009-09-28 14:42:14 51°22.469 2°53.978 185.6 11.8 186 21.3
2009-09-28 14:43:14 51°22.275 2°53.935 185.9 11.7 189 19.6
2009-09-28 14:44:14 51°22.08 2°53.893 185.2 11.7 187 18.5
2009-09-28 14:45:14 51°21.887 2°53.842 189.4 11.7 193 18.1
2009-09-28 14:46:14 51°21.695 2°53.777 190.1 11.8 191 16.4
2009-09-28 14:47:14 51°21.503 2°53.713 189.6 11.8 192 16.1
2009-09-28 14:48:14 51°21.313 2°53.631 194.5 11.8 197 16.1
2009-09-28 14:49:14 51°21.124 2°53.54 195.6 11.8 198 16
2009-09-28 14:50:14 51°20.934 2°53.457 192.5 11.7 194 16
2009-09-28 14:51:14 51°20.742 2°53.385 191.1 11.8 194 16.1
2009-09-28 14:52:15 51°20.546 2°53.31 191.6 11.9 193 16
2009-09-28 14:53:14 51°20.356 2°53.238 191.7 11.8 194 16
2009-09-28 14:54:15 51°20.16 2°53.166 191.6 11.9 192 15.7
2009-09-28 14:55:14 51°19.969 2°53.098 190.2 12 192 15.4
2009-09-28 14:56:14 51°19.775 2°53.027 191.9 11.9 193 14.8
2009-09-28 14:57:14 51°19.581 2°52.957 190.6 11.9 192 14.2
2009-09-28 14:58:14 51°19.389 2°52.886 192.2 11.8 194 13.7
2009-09-28 14:59:15 51°19.192 2°52.815 191.3 12 193 12.9
2009-09-28 15:00:14 51°19.004 2°52.747 191.8 11.7 193 12.2
2009-09-28 15:01:15 51°18.81 2°52.677 190.9 11.7 192 11.6
2009-09-28 15:02:14 51°18.621 2°52.608 192.3 11.8 194 11.4
2009-09-28 15:03:14 51°18.43 2°52.538 191 11.8 194 11
2009-09-28 15:04:14 51°18.239 2°52.47 190.6 11.7 192 10.4
2009-09-28 15:05:15 51°18.044 2°52.401 191.7 11.8 191 10.4
2009-09-28 15:06:14 51°17.856 2°52.333 191.3 11.8 194 10.1
2009-09-28 15:07:14 51°17.664 2°52.264 192.7 11.9 192 10.3
2009-09-28 15:08:15 51°17.467 2°52.205 184.5 11.8 182 11
2009-09-28 15:09:14 51°17.274 2°52.206 176.7 11.7 178 11.1
2009-09-28 15:10:15 51°17.075 2°52.235 171 11.7 172 11.1
2009-09-28 15:11:14 51°16.897 2°52.339 151.2 11.5 154 9.3
2009-09-28 15:12:15 51°16.724 2°52.487 149 11.6 149 10.7
2009-09-28 15:13:14 51°16.56 2°52.635 147.7 11.5 150 11.3
2009-09-28 15:14:14 51°16.389 2°52.778 151.3 11.5 155 11.6
2009-09-28 15:15:14 51°16.215 2°52.907 151.5 11.5 155 11.8
2009-09-28 15:16:14 51°16.04 2°53.033 151.8 11.5 156 11.7
2009-09-28 15:17:14 51°15.864 2°53.163 151.9 11.6 156 11.4
2009-09-28 15:18:14 51°15.69 2°53.292 148.9 11.4 153 11.2
2009-09-28 15:19:15 51°15.527 2°53.46 141.9 11.4 144 10.3
2009-09-28 15:20:14 51°15.375 2°53.632 140.5 11.4 144 10.1
2009-09-28 15:21:15 51°15.228 2°53.792 143.6 10.1 145 9.5
2009-09-28 15:22:14 51°15.081 2°53.958 141.2 11.4 144 9.2
2009-09-28 15:23:14 51°14.925 2°54.136 141.5 11.6 145 8.9
2009-09-28 15:24:15 51°14.768 2°54.321 138 11.7 141 10
2009-09-28 15:25:14 51°14.629 2°54.523 128.4 11.5 131 10.1
2009-09-28 15:26:15 51°14.505 2°54.758 127.1 11.3 132 10.2
2009-09-28 15:27:14 51°14.394 2°54.992 126.8 11.3 126 9.8
2009-09-28 15:28:15 51°14.279 2°55.224 130.5 9.4 131 10.7
2009-09-28 15:29:14 51°14.176 2°55.361 148.7 7.6 149 11.1
2009-09-28 15:30:14 51°14.072 2°55.444 154.4 6.6 154 10.7
2009-09-28 15:31:14 51°13.981 2°55.512 155 5.1 154 11.4
2009-09-28 15:32:14 51°13.917 2°55.561 155.5 4 155 11.2
2009-09-28 15:33:18 51°13.837 2°55.62 151.4 5.6 152 -999
2009-09-28 15:34:18 51°13.763 2°55.707 132.9 5.1 135 -999
2009-09-28 15:35:18 51°13.71 2°55.806 127 4.6 127 -999
2009-09-28 15:36:18 51°13.679 2°55.892 108.2 3 110 -999
2009-09-28 15:37:18 51°13.672 2°55.931 102.4 0.2 51 -999
2009-09-28 15:38:18 51°13.669 2°55.943 115.9 0.6 114 -999
2009-09-28 15:39:18 51°13.664 2°55.955 126.1 0.5 135 -999
2009-09-28 15:40:18 51°13.663 2°55.959 124.2 0.2 325 -999